sensor_id;sensor_type;location;lat;lon;timestamp;P1;durP1;ratioP1;P2;durP2;ratioP2
65543;SDS011;52173;45.204;39.240;2023-07-08T00:01:42;6.82;;;3.50;;
65543;SDS011;52173;45.204;39.240;2023-07-08T00:04:07;8.63;;;3.33;;
65543;SDS011;52173;45.204;39.240;2023-07-08T00:06:34;5.65;;;3.40;;
65543;SDS011;52173;45.204;39.240;2023-07-08T00:09:00;9.85;;;4.10;;
65543;SDS011;52173;45.204;39.240;2023-07-08T08:30:50;6.53;;;3.90;;
65543;SDS011;52173;45.204;39.240;2023-07-08T08:33:17;5.32;;;3.22;;
65543;SDS011;52173;45.204;39.240;2023-07-08T08:35:44;5.38;;;3.08;;
65543;SDS011;52173;45.204;39.240;2023-07-08T08:38:09;6.40;;;3.15;;
65543;SDS011;52173;45.204;39.240;2023-07-08T08:40:41;7.03;;;4.00;;
65543;SDS011;52173;45.204;39.240;2023-07-08T08:43:10;4.57;;;3.45;;
65543;SDS011;52173;45.204;39.240;2023-07-08T08:45:50;6.18;;;4.10;;
65543;SDS011;52173;45.204;39.240;2023-07-08T08:48:18;5.80;;;3.45;;
65543;SDS011;52173;45.204;39.240;2023-07-08T08:50:49;10.45;;;3.17;;
65543;SDS011;52173;45.204;39.240;2023-07-08T08:53:16;5.55;;;2.90;;
65543;SDS011;52173;45.204;39.240;2023-07-08T08:55:42;6.55;;;2.90;;
65543;SDS011;52173;45.204;39.240;2023-07-08T08:58:23;5.05;;;2.80;;
65543;SDS011;52173;45.204;39.240;2023-07-08T09:01:02;4.30;;;2.42;;
65543;SDS011;52173;45.204;39.240;2023-07-08T09:03:40;5.88;;;3.08;;
65543;SDS011;52173;45.204;39.240;2023-07-08T09:06:19;6.20;;;2.40;;
65543;SDS011;52173;45.204;39.240;2023-07-08T09:08:45;5.47;;;2.70;;
65543;SDS011;52173;45.204;39.240;2023-07-08T09:11:18;8.23;;;3.20;;
65543;SDS011;52173;45.204;39.240;2023-07-08T09:13:46;5.53;;;2.50;;
65543;SDS011;52173;45.204;39.240;2023-07-08T09:18:54;4.55;;;2.17;;
65543;SDS011;52173;45.204;39.240;2023-07-08T09:21:33;7.45;;;2.55;;
65543;SDS011;52173;45.204;39.240;2023-07-08T09:24:04;4.15;;;2.33;;
65543;SDS011;52173;45.204;39.240;2023-07-08T09:26:33;4.13;;;2.47;;
65543;SDS011;52173;45.204;39.240;2023-07-08T09:28:59;3.38;;;1.80;;
65543;SDS011;52173;45.204;39.240;2023-07-08T09:31:27;4.30;;;1.85;;
65543;SDS011;52173;45.204;39.240;2023-07-08T09:34:04;4.75;;;2.20;;
65543;SDS011;52173;45.204;39.240;2023-07-08T09:36:31;5.88;;;2.50;;
65543;SDS011;52173;45.204;39.240;2023-07-08T09:38:56;3.33;;;2.00;;
65543;SDS011;52173;45.204;39.240;2023-07-08T09:41:29;2.95;;;1.48;;
65543;SDS011;52173;45.204;39.240;2023-07-08T09:46:40;3.33;;;1.90;;
65543;SDS011;52173;45.204;39.240;2023-07-08T09:49:09;4.97;;;1.75;;
65543;SDS011;52173;45.204;39.240;2023-07-08T09:51:35;4.13;;;1.75;;
65543;SDS011;52173;45.204;39.240;2023-07-08T09:54:02;3.78;;;2.00;;
65543;SDS011;52173;45.204;39.240;2023-07-08T09:56:29;3.80;;;1.98;;
65543;SDS011;52173;45.204;39.240;2023-07-08T10:01:41;3.83;;;1.70;;
65543;SDS011;52173;45.204;39.240;2023-07-08T10:04:07;5.63;;;2.03;;
65543;SDS011;52173;45.204;39.240;2023-07-08T10:06:34;4.70;;;1.48;;
65543;SDS011;52173;45.204;39.240;2023-07-08T10:09:04;4.47;;;1.92;;
65543;SDS011;52173;45.204;39.240;2023-07-08T10:11:39;3.42;;;1.80;;
65543;SDS011;52173;45.204;39.240;2023-07-08T10:14:13;5.53;;;2.35;;
65543;SDS011;52173;45.204;39.240;2023-07-08T10:16:44;8.55;;;2.13;;
65543;SDS011;52173;45.204;39.240;2023-07-08T10:19:14;3.97;;;2.00;;
65543;SDS011;52173;45.204;39.240;2023-07-08T10:27:15;4.55;;;1.88;;
65543;SDS011;52173;45.204;39.240;2023-07-08T10:35:14;3.97;;;1.88;;
65543;SDS011;52173;45.204;39.240;2023-07-08T10:40:14;3.97;;;1.90;;
65543;SDS011;52173;45.204;39.240;2023-07-08T10:42:53;4.45;;;1.95;;
65543;SDS011;52173;45.204;39.240;2023-07-08T10:45:29;15.18;;;3.40;;
65543;SDS011;52173;45.204;39.240;2023-07-08T11:05:41;4.28;;;1.42;;
65543;SDS011;52173;45.204;39.240;2023-07-08T11:10:36;4.70;;;1.30;;
65543;SDS011;52173;45.204;39.240;2023-07-08T11:15:37;4.57;;;1.50;;
65543;SDS011;52173;45.204;39.240;2023-07-08T11:20:56;9.45;;;3.00;;
65543;SDS011;52173;45.204;39.240;2023-07-08T11:23:26;6.32;;;2.20;;
65543;SDS011;52173;45.204;39.240;2023-07-08T11:25:59;11.27;;;5.80;;
65543;SDS011;52173;45.204;39.240;2023-07-08T11:31:15;8.25;;;3.63;;
65543;SDS011;52173;45.204;39.240;2023-07-08T11:33:41;7.40;;;3.08;;
65543;SDS011;52173;45.204;39.240;2023-07-08T11:36:09;2.80;;;1.35;;
65543;SDS011;52173;45.204;39.240;2023-07-08T11:41:26;3.70;;;1.33;;
65543;SDS011;52173;45.204;39.240;2023-07-08T11:44:02;3.40;;;1.48;;
65543;SDS011;52173;45.204;39.240;2023-07-08T11:46:30;3.95;;;1.92;;
65543;SDS011;52173;45.204;39.240;2023-07-08T11:49:13;4.07;;;1.73;;
65543;SDS011;52173;45.204;39.240;2023-07-08T11:51:41;3.28;;;1.67;;
65543;SDS011;52173;45.204;39.240;2023-07-08T11:57:00;6.13;;;1.60;;
65543;SDS011;52173;45.204;39.240;2023-07-08T11:59:29;4.40;;;1.77;;
65543;SDS011;52173;45.204;39.240;2023-07-08T12:02:10;4.35;;;1.55;;
65543;SDS011;52173;45.204;39.240;2023-07-08T12:07:16;3.58;;;1.50;;
65543;SDS011;52173;45.204;39.240;2023-07-08T12:09:45;4.95;;;1.35;;
65543;SDS011;52173;45.204;39.240;2023-07-08T12:15:00;13.50;;;3.45;;
65543;SDS011;52173;45.204;39.240;2023-07-08T12:17:32;13.38;;;3.88;;
65543;SDS011;52173;45.204;39.240;2023-07-08T12:19:58;9.57;;;2.70;;
65543;SDS011;52173;45.204;39.240;2023-07-08T12:22:28;21.88;;;8.20;;
65543;SDS011;52173;45.204;39.240;2023-07-08T12:24:54;7.93;;;4.93;;
65543;SDS011;52173;45.204;39.240;2023-07-08T12:27:21;9.98;;;5.22;;
65543;SDS011;52173;45.204;39.240;2023-07-08T12:29:47;14.68;;;6.32;;
65543;SDS011;52173;45.204;39.240;2023-07-08T12:32:16;13.23;;;5.40;;
65543;SDS011;52173;45.204;39.240;2023-07-08T12:34:43;5.07;;;2.90;;
65543;SDS011;52173;45.204;39.240;2023-07-08T12:37:10;4.38;;;1.88;;
65543;SDS011;52173;45.204;39.240;2023-07-08T12:39:40;5.60;;;1.90;;
65543;SDS011;52173;45.204;39.240;2023-07-08T12:42:10;8.57;;;2.78;;
65543;SDS011;52173;45.204;39.240;2023-07-08T12:44:38;4.28;;;1.60;;
65543;SDS011;52173;45.204;39.240;2023-07-08T12:47:12;4.18;;;2.00;;
65543;SDS011;52173;45.204;39.240;2023-07-08T12:49:38;4.38;;;1.98;;
65543;SDS011;52173;45.204;39.240;2023-07-08T12:52:04;6.07;;;2.17;;
65543;SDS011;52173;45.204;39.240;2023-07-08T12:54:30;5.60;;;2.35;;
65543;SDS011;52173;45.204;39.240;2023-07-08T12:57:00;5.63;;;2.80;;
65543;SDS011;52173;45.204;39.240;2023-07-08T12:59:29;4.75;;;1.92;;
65543;SDS011;52173;45.204;39.240;2023-07-08T13:01:59;4.18;;;2.20;;
65543;SDS011;52173;45.204;39.240;2023-07-08T13:04:28;5.05;;;2.10;;
65543;SDS011;52173;45.204;39.240;2023-07-08T13:06:56;4.90;;;2.25;;
65543;SDS011;52173;45.204;39.240;2023-07-08T13:09:39;4.85;;;2.47;;
65543;SDS011;52173;45.204;39.240;2023-07-08T13:12:18;4.55;;;2.30;;
65543;SDS011;52173;45.204;39.240;2023-07-08T13:14:51;6.33;;;1.77;;
65543;SDS011;52173;45.204;39.240;2023-07-08T13:17:19;5.50;;;2.33;;
65543;SDS011;52173;45.204;39.240;2023-07-08T13:19:46;7.50;;;3.00;;
65543;SDS011;52173;45.204;39.240;2023-07-08T13:22:14;3.75;;;2.10;;
65543;SDS011;52173;45.204;39.240;2023-07-08T13:24:42;17.95;;;3.60;;
65543;SDS011;52173;45.204;39.240;2023-07-08T13:27:12;3.25;;;2.05;;
65543;SDS011;52173;45.204;39.240;2023-07-08T13:29:39;4.90;;;1.98;;
65543;SDS011;52173;45.204;39.240;2023-07-08T13:32:08;4.55;;;1.83;;
65543;SDS011;52173;45.204;39.240;2023-07-08T13:34:35;4.90;;;2.10;;
65543;SDS011;52173;45.204;39.240;2023-07-08T13:37:03;4.00;;;2.13;;
65543;SDS011;52173;45.204;39.240;2023-07-08T13:39:33;4.68;;;1.83;;
65543;SDS011;52173;45.204;39.240;2023-07-08T13:42:03;4.60;;;2.10;;
65543;SDS011;52173;45.204;39.240;2023-07-08T13:44:31;3.58;;;1.98;;
65543;SDS011;52173;45.204;39.240;2023-07-08T13:47:18;5.57;;;1.85;;
65543;SDS011;52173;45.204;39.240;2023-07-08T13:49:45;5.28;;;2.25;;
65543;SDS011;52173;45.204;39.240;2023-07-08T13:54:41;7.00;;;3.63;;
65543;SDS011;52173;45.204;39.240;2023-07-08T13:57:12;10.70;;;4.80;;
65543;SDS011;52173;45.204;39.240;2023-07-08T13:59:38;11.20;;;5.68;;
65543;SDS011;52173;45.204;39.240;2023-07-08T14:02:12;11.82;;;5.72;;
65543;SDS011;52173;45.204;39.240;2023-07-08T14:04:39;12.05;;;6.47;;
65543;SDS011;52173;45.204;39.240;2023-07-08T14:07:13;12.68;;;6.20;;
65543;SDS011;52173;45.204;39.240;2023-07-08T14:09:42;8.45;;;4.50;;
65543;SDS011;52173;45.204;39.240;2023-07-08T14:12:10;9.30;;;3.97;;
65543;SDS011;52173;45.204;39.240;2023-07-08T14:14:38;5.60;;;3.30;;
65543;SDS011;52173;45.204;39.240;2023-07-08T14:17:04;5.22;;;2.38;;
65543;SDS011;52173;45.204;39.240;2023-07-08T14:19:31;3.88;;;1.95;;
65543;SDS011;52173;45.204;39.240;2023-07-08T14:21:59;5.63;;;1.73;;
65543;SDS011;52173;45.204;39.240;2023-07-08T14:24:28;3.25;;;1.30;;
65543;SDS011;52173;45.204;39.240;2023-07-08T14:26:54;3.35;;;1.70;;
65543;SDS011;52173;45.204;39.240;2023-07-08T14:29:20;3.80;;;1.30;;
65543;SDS011;52173;45.204;39.240;2023-07-08T14:31:47;4.18;;;1.70;;
65543;SDS011;52173;45.204;39.240;2023-07-08T14:34:21;2.17;;;1.30;;
65543;SDS011;52173;45.204;39.240;2023-07-08T14:36:47;2.90;;;1.30;;
65543;SDS011;52173;45.204;39.240;2023-07-08T14:39:15;5.15;;;1.55;;
65543;SDS011;52173;45.204;39.240;2023-07-08T14:41:41;2.95;;;1.42;;
65543;SDS011;52173;45.204;39.240;2023-07-08T14:44:50;2.25;;;1.27;;
65543;SDS011;52173;45.204;39.240;2023-07-08T14:46:59;2.65;;;1.48;;
65543;SDS011;52173;45.204;39.240;2023-07-08T14:49:27;3.85;;;1.80;;
65543;SDS011;52173;45.204;39.240;2023-07-08T14:51:55;5.15;;;1.75;;
65543;SDS011;52173;45.204;39.240;2023-07-08T14:54:21;3.65;;;1.73;;
65543;SDS011;52173;45.204;39.240;2023-07-08T14:56:49;3.25;;;1.58;;
65543;SDS011;52173;45.204;39.240;2023-07-08T14:59:18;4.93;;;2.00;;
65543;SDS011;52173;45.204;39.240;2023-07-08T15:01:45;5.75;;;1.80;;
65543;SDS011;52173;45.204;39.240;2023-07-08T15:04:15;6.28;;;2.00;;
65543;SDS011;52173;45.204;39.240;2023-07-08T15:06:41;4.63;;;1.92;;
65543;SDS011;52173;45.204;39.240;2023-07-08T15:09:07;6.40;;;2.50;;
65543;SDS011;52173;45.204;39.240;2023-07-08T15:11:34;8.50;;;2.75;;
65543;SDS011;52173;45.204;39.240;2023-07-08T15:14:03;5.63;;;2.80;;
65543;SDS011;52173;45.204;39.240;2023-07-08T15:16:31;5.20;;;2.72;;
65543;SDS011;52173;45.204;39.240;2023-07-08T15:18:57;4.60;;;2.22;;
65543;SDS011;52173;45.204;39.240;2023-07-08T15:21:23;6.35;;;2.47;;
65543;SDS011;52173;45.204;39.240;2023-07-08T15:23:49;6.30;;;2.22;;
65543;SDS011;52173;45.204;39.240;2023-07-08T15:26:15;4.38;;;2.30;;
65543;SDS011;52173;45.204;39.240;2023-07-08T15:28:46;4.53;;;2.55;;
65543;SDS011;52173;45.204;39.240;2023-07-08T15:34:00;3.35;;;1.98;;
65543;SDS011;52173;45.204;39.240;2023-07-08T15:36:25;4.57;;;2.60;;
65543;SDS011;52173;45.204;39.240;2023-07-08T15:38:51;6.65;;;2.50;;
65543;SDS011;52173;45.204;39.240;2023-07-08T15:44:08;5.82;;;2.60;;
65543;SDS011;52173;45.204;39.240;2023-07-08T15:46:40;5.90;;;2.13;;
65543;SDS011;52173;45.204;39.240;2023-07-08T15:49:12;6.20;;;2.35;;
65543;SDS011;52173;45.204;39.240;2023-07-08T15:51:39;6.38;;;2.88;;
65543;SDS011;52173;45.204;39.240;2023-07-08T15:56:49;3.85;;;2.50;;
65543;SDS011;52173;45.204;39.240;2023-07-08T15:59:18;7.43;;;2.63;;
65543;SDS011;52173;45.204;39.240;2023-07-08T16:01:45;4.72;;;2.40;;
65543;SDS011;52173;45.204;39.240;2023-07-08T16:04:31;5.15;;;2.58;;
65543;SDS011;52173;45.204;39.240;2023-07-08T16:06:59;7.40;;;2.63;;
65543;SDS011;52173;45.204;39.240;2023-07-08T16:09:26;6.78;;;2.63;;
65543;SDS011;52173;45.204;39.240;2023-07-08T16:11:53;6.47;;;2.60;;
65543;SDS011;52173;45.204;39.240;2023-07-08T16:14:18;6.93;;;2.70;;
65543;SDS011;52173;45.204;39.240;2023-07-08T16:16:45;6.38;;;2.47;;
65543;SDS011;52173;45.204;39.240;2023-07-08T16:21:55;5.35;;;2.60;;
65543;SDS011;52173;45.204;39.240;2023-07-08T16:24:21;4.75;;;3.00;;
65543;SDS011;52173;45.204;39.240;2023-07-08T16:26:47;5.47;;;3.08;;
65543;SDS011;52173;45.204;39.240;2023-07-08T16:29:15;9.88;;;3.00;;
65543;SDS011;52173;45.204;39.240;2023-07-08T16:34:27;8.13;;;2.70;;
65543;SDS011;52173;45.204;39.240;2023-07-08T16:36:54;9.00;;;3.70;;
65543;SDS011;52173;45.204;39.240;2023-07-08T16:39:21;8.27;;;3.60;;
65543;SDS011;52173;45.204;39.240;2023-07-08T16:41:47;7.80;;;3.47;;
65543;SDS011;52173;45.204;39.240;2023-07-08T16:44:16;9.93;;;4.25;;
65543;SDS011;52173;45.204;39.240;2023-07-08T16:46:44;7.10;;;4.00;;
65543;SDS011;52173;45.204;39.240;2023-07-08T16:49:10;6.45;;;4.65;;
65543;SDS011;52173;45.204;39.240;2023-07-08T16:54:21;6.78;;;4.03;;
65543;SDS011;52173;45.204;39.240;2023-07-08T16:56:49;6.32;;;3.33;;
65543;SDS011;52173;45.204;39.240;2023-07-08T16:59:18;7.30;;;3.25;;
65543;SDS011;52173;45.204;39.240;2023-07-08T17:01:44;4.85;;;2.60;;
65543;SDS011;52173;45.204;39.240;2023-07-08T17:04:12;6.45;;;3.15;;
65543;SDS011;52173;45.204;39.240;2023-07-08T17:06:38;5.90;;;2.90;;
65543;SDS011;52173;45.204;39.240;2023-07-08T17:11:49;6.57;;;3.03;;
65543;SDS011;52173;45.204;39.240;2023-07-08T17:14:15;8.55;;;3.75;;
65543;SDS011;52173;45.204;39.240;2023-07-08T17:16:42;8.65;;;3.50;;
65543;SDS011;52173;45.204;39.240;2023-07-08T17:21:54;6.15;;;3.50;;
65543;SDS011;52173;45.204;39.240;2023-07-08T17:27:06;6.97;;;4.20;;
65543;SDS011;52173;45.204;39.240;2023-07-08T17:29:33;7.15;;;3.90;;
65543;SDS011;52173;45.204;39.240;2023-07-08T17:31:58;7.68;;;4.60;;
65543;SDS011;52173;45.204;39.240;2023-07-08T17:34:32;6.28;;;4.53;;
65543;SDS011;52173;45.204;39.240;2023-07-08T17:39:47;10.27;;;4.20;;
65543;SDS011;52173;45.204;39.240;2023-07-08T17:42:14;6.25;;;4.15;;
65543;SDS011;52173;45.204;39.240;2023-07-08T17:44:40;6.03;;;3.97;;
65543;SDS011;52173;45.204;39.240;2023-07-08T17:52:38;5.50;;;3.70;;
65543;SDS011;52173;45.204;39.240;2023-07-08T17:55:06;6.32;;;3.78;;
65543;SDS011;52173;45.204;39.240;2023-07-08T17:57:32;8.73;;;4.38;;
65543;SDS011;52173;45.204;39.240;2023-07-08T17:59:59;6.97;;;3.90;;
65543;SDS011;52173;45.204;39.240;2023-07-08T18:02:27;6.85;;;4.13;;
65543;SDS011;52173;45.204;39.240;2023-07-08T18:04:53;5.93;;;4.13;;
65543;SDS011;52173;45.204;39.240;2023-07-08T18:07:19;6.88;;;4.05;;
65543;SDS011;52173;45.204;39.240;2023-07-08T18:09:46;7.43;;;3.90;;
65543;SDS011;52173;45.204;39.240;2023-07-08T18:12:14;9.20;;;4.40;;
65543;SDS011;52173;45.204;39.240;2023-07-08T18:14:46;5.55;;;3.80;;
65543;SDS011;52173;45.204;39.240;2023-07-08T18:19:59;8.00;;;4.68;;
65543;SDS011;52173;45.204;39.240;2023-07-08T18:25:14;7.22;;;5.35;;
65543;SDS011;52173;45.204;39.240;2023-07-08T18:27:41;11.10;;;5.07;;
65543;SDS011;52173;45.204;39.240;2023-07-08T18:32:57;9.07;;;6.00;;
65543;SDS011;52173;45.204;39.240;2023-07-08T18:35:24;11.77;;;6.38;;
65543;SDS011;52173;45.204;39.240;2023-07-08T18:37:51;8.10;;;6.15;;
65543;SDS011;52173;45.204;39.240;2023-07-08T18:40:26;10.32;;;5.75;;
65543;SDS011;52173;45.204;39.240;2023-07-08T18:42:58;8.75;;;5.28;;
65543;SDS011;52173;45.204;39.240;2023-07-08T18:45:26;13.05;;;5.78;;
65543;SDS011;52173;45.204;39.240;2023-07-08T18:47:53;8.15;;;5.75;;
65543;SDS011;52173;45.204;39.240;2023-07-08T18:50:26;10.00;;;6.47;;
65543;SDS011;52173;45.204;39.240;2023-07-08T18:52:53;9.70;;;5.80;;
65543;SDS011;52173;45.204;39.240;2023-07-08T18:55:20;7.72;;;5.80;;
65543;SDS011;52173;45.204;39.240;2023-07-08T18:57:50;10.85;;;5.75;;
65543;SDS011;52173;45.204;39.240;2023-07-08T19:00:22;7.10;;;4.55;;
65543;SDS011;52173;45.204;39.240;2023-07-08T19:02:49;8.68;;;5.30;;
65543;SDS011;52173;45.204;39.240;2023-07-08T19:05:19;8.40;;;4.35;;
65543;SDS011;52173;45.204;39.240;2023-07-08T19:07:48;8.45;;;5.30;;
65543;SDS011;52173;45.204;39.240;2023-07-08T19:10:15;8.32;;;4.65;;
65543;SDS011;52173;45.204;39.240;2023-07-08T19:12:45;7.95;;;5.18;;
65543;SDS011;52173;45.204;39.240;2023-07-08T19:15:23;7.38;;;4.72;;
65543;SDS011;52173;45.204;39.240;2023-07-08T19:17:52;13.00;;;5.07;;
65543;SDS011;52173;45.204;39.240;2023-07-08T19:20:18;10.88;;;6.40;;
65543;SDS011;52173;45.204;39.240;2023-07-08T19:26:13;10.60;;;6.60;;
65543;SDS011;52173;45.204;39.240;2023-07-08T19:28:40;8.18;;;5.30;;
65543;SDS011;52173;45.204;39.240;2023-07-08T19:31:13;7.53;;;5.82;;
65543;SDS011;52173;45.204;39.240;2023-07-08T19:33:41;8.00;;;5.45;;
65543;SDS011;52173;45.204;39.240;2023-07-08T19:36:07;10.65;;;5.40;;
65543;SDS011;52173;45.204;39.240;2023-07-08T19:38:35;9.60;;;4.82;;
65543;SDS011;52173;45.204;39.240;2023-07-08T19:41:03;8.18;;;5.07;;
65543;SDS011;52173;45.204;39.240;2023-07-08T19:43:30;10.15;;;5.47;;
65543;SDS011;52173;45.204;39.240;2023-07-08T19:45:56;7.95;;;5.60;;
65543;SDS011;52173;45.204;39.240;2023-07-08T19:48:22;11.68;;;6.38;;
65543;SDS011;52173;45.204;39.240;2023-07-08T19:50:47;12.13;;;7.45;;
65543;SDS011;52173;45.204;39.240;2023-07-08T19:53:15;9.43;;;6.38;;
65543;SDS011;52173;45.204;39.240;2023-07-08T19:55:41;11.65;;;5.85;;
65543;SDS011;52173;45.204;39.240;2023-07-08T19:58:11;8.40;;;6.35;;
65543;SDS011;52173;45.204;39.240;2023-07-08T20:00:40;7.72;;;5.07;;
65543;SDS011;52173;45.204;39.240;2023-07-08T20:03:12;10.88;;;5.75;;
65543;SDS011;52173;45.204;39.240;2023-07-08T20:05:39;9.05;;;5.82;;
65543;SDS011;52173;45.204;39.240;2023-07-08T20:10:42;11.25;;;8.63;;
65543;SDS011;52173;45.204;39.240;2023-07-08T20:13:10;10.27;;;7.80;;
65543;SDS011;52173;45.204;39.240;2023-07-08T20:15:35;13.05;;;6.63;;
65543;SDS011;52173;45.204;39.240;2023-07-08T20:18:08;7.88;;;6.20;;
65543;SDS011;52173;45.204;39.240;2023-07-08T20:20:34;8.63;;;5.47;;
65543;SDS011;52173;45.204;39.240;2023-07-08T20:23:01;7.63;;;4.80;;
65543;SDS011;52173;45.204;39.240;2023-07-08T20:25:27;10.63;;;4.97;;
65543;SDS011;52173;45.204;39.240;2023-07-08T20:27:53;7.55;;;5.00;;
65543;SDS011;52173;45.204;39.240;2023-07-08T20:30:20;8.98;;;5.03;;
